Terminal Aerodrome Forecast
Issued by NWS Norman, OK

Home | Current Version | Previous Version | Text Only | Print | Product List | Glossary On
Versions: 1 2 3 4 5 6 7 8 9 10 11 12 13 14 15 16 17 18 19 20 21 22 23 24 25 26 27 28 29 30 31
000
FTUS44 KOUN 031440 AAA
TAFSPS
TAF AMD
KSPS 031440Z 0315/0412 15009KT P6SM VCSH BKN070 BKN250
      TEMPO 0315/0318 4SM -TSRA BR SCT025 OVC070CB
     FM031900 16010KT P6SM SCT070 BKN250=

USA.gov is the U.S. government's official web portal to all federal, state and local government web resources and services.